createdAt,value
2019-04-21T00:01:09.196Z,14.55
2019-04-21T00:03:50.127Z,14.26
2019-04-21T00:06:37.017Z,14.20
2019-04-21T00:09:21.043Z,13.95
2019-04-21T00:11:53.774Z,13.80
2019-04-21T00:14:08.967Z,13.76
2019-04-21T00:16:40.969Z,13.69
2019-04-21T00:19:14.485Z,13.63
2019-04-21T00:21:45.759Z,13.68
2019-04-21T00:24:25.019Z,13.60
2019-04-21T00:27:06.995Z,13.56
2019-04-21T00:32:08.717Z,13.52
2019-04-21T00:34:28.110Z,13.42
2019-04-21T00:37:09.452Z,13.50
2019-04-21T00:42:25.756Z,13.38
2019-04-21T00:44:51.973Z,13.31
2019-04-21T00:47:31.754Z,13.18
2019-04-21T00:50:02.253Z,13.11
2019-04-21T00:55:45.567Z,13.07
2019-04-21T00:58:18.435Z,13.04
2019-04-21T01:00:49.584Z,12.88
2019-04-21T01:03:20.616Z,13.00
2019-04-21T01:05:51.650Z,12.93
2019-04-21T01:08:21.740Z,13.08
2019-04-21T01:10:45.870Z,13.08
2019-04-21T01:13:45.619Z,13.07
2019-04-21T01:15:59.201Z,13.12
2019-04-21T01:18:32.656Z,13.08
2019-04-21T01:20:42.789Z,13.16
2019-04-21T01:23:19.225Z,12.98
2019-04-21T01:26:06.827Z,12.95
2019-04-21T01:28:39.925Z,13.02
2019-04-21T01:31:17.445Z,12.84
2019-04-21T01:33:57.493Z,12.86
2019-04-21T01:36:24.562Z,12.85
2019-04-21T01:39:08.412Z,12.86
2019-04-21T01:41:42.874Z,12.87
2019-04-21T01:44:14.898Z,12.75
2019-04-21T01:46:40.771Z,12.82
2019-04-21T01:49:11.486Z,12.68
2019-04-21T01:52:03.266Z,12.69
2019-04-21T01:54:52.248Z,12.85
2019-04-21T01:57:23.042Z,12.92
2019-04-21T01:59:56.520Z,12.95
2019-04-21T02:02:52.470Z,12.79
2019-04-21T02:05:18.828Z,12.95
2019-04-21T02:07:44.762Z,12.96
2019-04-21T02:10:17.953Z,12.92
2019-04-21T02:12:51.313Z,12.81
2019-04-21T02:15:31.271Z,12.70
2019-04-21T02:17:59.480Z,12.57
2019-04-21T02:20:22.991Z,12.60
2019-04-21T02:23:26.368Z,12.50
2019-04-21T02:25:44.690Z,12.41
2019-04-21T02:28:24.481Z,12.43
2019-04-21T02:31:05.893Z,12.39
2019-04-21T02:36:18.513Z,12.26
2019-04-21T02:38:39.164Z,12.15
2019-04-21T02:41:22.968Z,11.98
2019-04-21T02:43:46.518Z,12.00
2019-04-21T02:48:56.163Z,11.93
2019-04-21T02:51:28.021Z,11.87
2019-04-21T02:54:31.821Z,11.96
2019-04-21T02:56:35.794Z,12.01
2019-04-21T02:59:05.297Z,12.06
2019-04-21T03:01:50.415Z,12.06
2019-04-21T03:04:44.090Z,12.09
2019-04-21T03:09:49.529Z,12.20
2019-04-21T03:12:22.718Z,12.29
2019-04-21T03:17:43.908Z,12.34
2019-04-21T03:22:25.031Z,12.39
2019-04-21T03:38:05.768Z,12.22
2019-04-21T03:40:22.211Z,11.98
2019-04-21T03:43:01.940Z,12.10
2019-04-21T03:48:05.157Z,12.03
2019-04-21T03:50:41.084Z,11.89
2019-04-21T03:53:16.807Z,11.74
2019-04-21T03:58:23.927Z,11.53
2019-04-21T04:09:37.214Z,11.66
2019-04-21T04:12:05.147Z,11.61
2019-04-21T04:14:46.190Z,11.50
2019-04-21T04:19:44.572Z,11.29
2019-04-21T04:24:49.878Z,11.34
2019-04-21T04:27:36.903Z,11.41
2019-04-21T04:29:57.209Z,11.38
2019-04-21T04:32:23.530Z,11.34
2019-04-21T04:35:10.870Z,11.25
2019-04-21T04:37:32.203Z,11.26
2019-04-21T04:40:10.500Z,11.24
2019-04-21T04:42:47.857Z,11.16
2019-04-21T04:45:23.773Z,11.14
2019-04-21T04:47:44.921Z,11.19
2019-04-21T04:50:17.779Z,11.06
2019-04-21T04:55:22.056Z,11.16
2019-04-21T04:58:04.909Z,11.18
2019-04-21T05:05:36.290Z,11.09
2019-04-21T05:07:57.591Z,11.19
2019-04-21T05:10:38.526Z,11.33
2019-04-21T05:13:02.295Z,11.34
2019-04-21T05:18:02.915Z,11.52
2019-04-21T05:20:23.677Z,11.59
2019-04-21T05:23:06.272Z,11.53
2019-04-21T05:25:27.760Z,11.49
2019-04-21T05:28:02.590Z,11.59
2019-04-21T05:30:50.901Z,11.72
2019-04-21T05:33:39.914Z,11.86
2019-04-21T05:36:11.456Z,11.80
2019-04-21T05:38:55.516Z,11.91
2019-04-21T05:41:22.782Z,12.15
2019-04-21T05:43:56.513Z,12.25
2019-04-21T05:46:34.396Z,12.23
2019-04-21T05:49:06.806Z,12.37
2019-04-21T05:51:35.552Z,12.40
2019-04-21T05:54:23.056Z,12.48
2019-04-21T05:56:40.713Z,12.59
2019-04-21T05:59:13.517Z,12.60
2019-04-21T06:01:47.070Z,12.75
2019-04-21T06:04:34.100Z,12.91
2019-04-21T06:07:04.403Z,13.00
2019-04-21T06:09:35.215Z,13.06
2019-04-21T06:12:04.363Z,13.04
2019-04-21T06:14:45.994Z,13.10
2019-04-21T06:17:19.807Z,13.06
2019-04-21T06:22:14.873Z,13.18
2019-04-21T06:25:16.202Z,13.08
2019-04-21T06:27:22.932Z,13.10
2019-04-21T06:29:49.155Z,13.37
2019-04-21T06:32:36.066Z,13.46
2019-04-21T06:40:16.449Z,13.75
2019-04-21T06:42:34.087Z,13.94
2019-04-21T06:45:14.045Z,14.08
2019-04-21T06:47:47.238Z,14.27
2019-04-21T06:50:12.174Z,14.30
2019-04-21T06:52:52.159Z,14.38
2019-04-21T06:55:13.823Z,14.66
2019-04-21T06:57:45.715Z,14.70
2019-04-21T07:00:15.134Z,14.94
2019-04-21T07:05:15.380Z,15.15
2019-04-21T07:08:06.470Z,15.27
2019-04-21T07:10:17.214Z,15.48
2019-04-21T07:12:44.962Z,15.56
2019-04-21T07:15:17.009Z,15.34
2019-04-21T07:17:49.917Z,15.67
2019-04-21T07:20:21.821Z,15.65
2019-04-21T07:22:56.855Z,15.61
2019-04-21T07:25:32.659Z,15.88
2019-04-21T07:27:59.353Z,15.98
2019-04-21T07:33:19.329Z,16.24
2019-04-21T07:35:43.144Z,16.39
2019-04-21T07:38:16.707Z,16.49
2019-04-21T07:40:36.419Z,16.52
2019-04-21T07:43:05.720Z,16.88
2019-04-21T07:45:38.113Z,17.03
2019-04-21T07:48:19.078Z,17.20
2019-04-21T07:51:02.281Z,17.19
2019-04-21T07:53:55.747Z,17.22
2019-04-21T07:55:46.918Z,17.59
2019-04-21T07:58:36.415Z,17.74
2019-04-21T08:01:12.056Z,17.90
2019-04-21T08:03:43.920Z,18.07
2019-04-21T08:06:32.004Z,18.02
2019-04-21T08:08:42.165Z,18.27
2019-04-21T08:11:11.001Z,18.43
2019-04-21T08:16:20.400Z,18.65
2019-04-21T08:18:47.437Z,18.80
2019-04-21T08:21:11.127Z,19.02
2019-04-21T08:23:41.495Z,18.37
2019-04-21T08:26:16.611Z,18.43
2019-04-21T08:28:52.094Z,18.34
2019-04-21T08:31:25.788Z,18.68
2019-04-21T08:33:55.992Z,18.72
2019-04-21T08:38:59.853Z,19.15
2019-04-21T08:41:23.658Z,19.38
2019-04-21T08:43:58.484Z,19.61
2019-04-21T08:46:35.107Z,19.95
2019-04-21T08:49:00.845Z,20.18
2019-04-21T08:51:33.507Z,20.24
2019-04-21T08:54:09.207Z,20.26
2019-04-21T08:56:55.859Z,20.17
2019-04-21T08:59:47.155Z,20.22
2019-04-21T09:02:29.839Z,20.13
2019-04-21T09:05:00.209Z,20.42
2019-04-21T09:07:32.172Z,20.43
2019-04-21T09:09:57.850Z,20.52
2019-04-21T09:12:32.755Z,20.77
2019-04-21T09:15:01.249Z,20.61
2019-04-21T09:17:31.560Z,20.90
2019-04-21T09:20:13.050Z,21.33
2019-04-21T09:22:41.219Z,21.32
2019-04-21T09:25:19.374Z,21.68
2019-04-21T09:27:42.556Z,21.52
2019-04-21T09:30:03.474Z,21.52
2019-04-21T09:32:33.072Z,21.22
2019-04-21T09:35:05.680Z,21.84
2019-04-21T09:37:46.466Z,22.06
2019-04-21T09:40:06.775Z,21.79
2019-04-21T09:42:44.339Z,22.48
2019-04-21T09:45:10.028Z,22.04
2019-04-21T09:47:47.019Z,22.26
2019-04-21T09:50:10.301Z,22.52
2019-04-21T09:52:48.842Z,22.79
2019-04-21T09:55:17.508Z,23.06
2019-04-21T09:57:50.289Z,23.14
2019-04-21T10:00:22.389Z,23.48
2019-04-21T10:03:00.571Z,22.78
2019-04-21T10:05:23.495Z,23.01
2019-04-21T10:07:55.319Z,22.80
2019-04-21T10:10:27.513Z,22.99
2019-04-21T10:12:57.754Z,23.92
2019-04-21T10:15:28.286Z,24.06
2019-04-21T10:18:04.661Z,23.48
2019-04-21T10:20:36.357Z,23.91
2019-04-21T10:23:07.079Z,24.44
2019-04-21T10:25:41.033Z,24.51
2019-04-21T10:28:10.930Z,24.27
2019-04-21T10:30:42.668Z,24.36
2019-04-21T10:33:16.668Z,24.49
2019-04-21T10:35:46.746Z,24.59
2019-04-21T10:38:30.395Z,25.16
2019-04-21T10:40:55.133Z,24.44
2019-04-21T10:43:29.176Z,24.39
2019-04-21T10:46:01.253Z,24.45
2019-04-21T10:48:34.555Z,25.16
2019-04-21T10:51:03.691Z,25.26
2019-04-21T10:53:36.702Z,25.04
2019-04-21T10:56:16.977Z,25.19
2019-04-21T10:58:40.896Z,25.72
2019-04-21T11:01:16.795Z,26.38
2019-04-21T11:04:19.989Z,26.28
2019-04-21T11:06:39.208Z,25.85
2019-04-21T11:09:15.860Z,25.67
2019-04-21T11:11:49.561Z,26.23
2019-04-21T11:14:17.788Z,25.97
2019-04-21T11:16:49.072Z,26.55
2019-04-21T11:19:20.048Z,26.71
2019-04-21T11:21:52.562Z,26.44
2019-04-21T11:24:23.046Z,26.56
2019-04-21T11:26:53.799Z,27.18
2019-04-21T11:29:23.400Z,27.02
2019-04-21T11:31:54.831Z,26.57
2019-04-21T11:34:25.139Z,26.88
2019-04-21T11:36:56.349Z,27.01
2019-04-21T11:39:37.549Z,27.63
2019-04-21T11:41:59.624Z,28.20
2019-04-21T11:44:31.037Z,28.10
2019-04-21T11:47:00.631Z,28.01
2019-04-21T11:49:36.968Z,28.37
2019-04-21T11:52:11.607Z,28.14
2019-04-21T11:54:46.742Z,28.17
2019-04-21T11:57:22.740Z,28.18
2019-04-21T11:59:49.192Z,27.83
2019-04-21T12:02:19.435Z,27.43
2019-04-21T12:04:49.561Z,26.94
2019-04-21T12:07:19.690Z,27.44
2019-04-21T12:09:51.342Z,27.02
2019-04-21T12:12:25.428Z,27.49
2019-04-21T12:14:55.012Z,27.75
2019-04-21T12:17:25.923Z,27.72
2019-04-21T12:19:55.223Z,28.26
2019-04-21T12:22:28.906Z,28.15
2019-04-21T12:24:55.871Z,28.10
2019-04-21T12:27:25.668Z,27.84
2019-04-21T12:29:55.523Z,28.28
2019-04-21T12:32:38.054Z,28.45
2019-04-21T12:35:10.065Z,28.59
2019-04-21T12:37:40.643Z,28.40
2019-04-21T12:40:14.416Z,28.00
2019-04-21T12:42:45.406Z,28.35
2019-04-21T12:45:15.724Z,28.82
2019-04-21T12:47:48.311Z,29.49
2019-04-21T12:50:17.054Z,29.35
2019-04-21T12:52:47.355Z,28.93
2019-04-21T12:55:23.944Z,28.60
2019-04-21T12:57:53.171Z,29.10
2019-04-21T13:00:23.076Z,29.00
2019-04-21T13:02:52.325Z,29.25
2019-04-21T13:05:27.544Z,29.58
2019-04-21T13:07:59.552Z,28.96
2019-04-21T13:10:30.582Z,29.42
2019-04-21T13:13:01.787Z,29.66
2019-04-21T13:15:33.542Z,30.34
2019-04-21T13:18:02.852Z,30.02
2019-04-21T13:20:32.344Z,30.04
2019-04-21T13:23:01.906Z,29.79
2019-04-21T13:25:31.773Z,30.39
2019-04-21T13:28:01.000Z,30.33
2019-04-21T13:30:30.626Z,30.30
2019-04-21T13:33:00.840Z,30.51
2019-04-21T13:35:30.990Z,30.20
2019-04-21T13:38:00.689Z,30.15
2019-04-21T13:41:14.994Z,30.27
2019-04-21T13:43:30.777Z,30.50
2019-04-21T13:45:59.934Z,30.47
2019-04-21T13:48:30.592Z,30.55
2019-04-21T13:50:59.825Z,30.87
2019-04-21T13:53:29.275Z,30.74
2019-04-21T13:55:58.597Z,30.54
2019-04-21T13:58:28.598Z,30.83
2019-04-21T14:00:59.948Z,30.73
2019-04-21T14:03:31.024Z,30.75
2019-04-21T14:06:02.603Z,30.90
2019-04-21T14:08:33.512Z,30.59
2019-04-21T14:11:03.348Z,30.13
2019-04-21T14:13:34.165Z,30.37
2019-04-21T14:16:04.130Z,30.94
2019-04-21T14:18:36.491Z,31.54
2019-04-21T14:21:07.224Z,30.89
2019-04-21T14:23:43.386Z,30.55
2019-04-21T14:26:09.389Z,30.76
2019-04-21T14:28:38.917Z,30.94
2019-04-21T14:31:10.492Z,31.30
2019-04-21T14:33:45.933Z,31.63
2019-04-21T14:36:16.789Z,31.64
2019-04-21T14:38:46.934Z,31.83
2019-04-21T14:41:18.177Z,31.44
2019-04-21T14:43:55.110Z,31.68
2019-04-21T14:46:37.499Z,31.94
2019-04-21T14:49:37.524Z,31.76
2019-04-21T14:52:25.269Z,31.06
2019-04-21T14:55:19.009Z,30.61
2019-04-21T14:57:53.179Z,30.41
2019-04-21T15:00:29.108Z,30.60
2019-04-21T15:03:01.722Z,30.64
2019-04-21T15:05:33.485Z,30.72
2019-04-21T15:08:04.907Z,31.15
2019-04-21T15:10:35.206Z,31.80
2019-04-21T15:13:05.774Z,31.90
2019-04-21T15:15:38.039Z,32.10
2019-04-21T15:18:14.595Z,32.52
2019-04-21T15:20:45.720Z,32.31
2019-04-21T15:23:15.250Z,31.97
2019-04-21T15:25:46.011Z,31.80
2019-04-21T15:28:16.075Z,31.73
2019-04-21T15:30:47.113Z,31.78
2019-04-21T15:33:18.161Z,31.65
2019-04-21T15:35:49.088Z,31.63
2019-04-21T15:38:22.203Z,31.75
2019-04-21T15:40:57.215Z,31.86
2019-04-21T15:43:26.594Z,32.27
2019-04-21T15:45:58.280Z,31.83
2019-04-21T15:48:30.927Z,31.82
2019-04-21T15:51:05.664Z,31.48
2019-04-21T15:53:37.394Z,31.64
2019-04-21T15:56:15.219Z,30.99
2019-04-21T15:59:02.629Z,31.34
2019-04-21T16:01:46.417Z,31.84
2019-04-21T16:04:16.830Z,31.93
2019-04-21T16:06:47.829Z,32.26
2019-04-21T16:09:21.619Z,32.33
2019-04-21T16:11:49.713Z,32.73
2019-04-21T16:14:20.591Z,32.81
2019-04-21T16:16:51.857Z,32.52
2019-04-21T16:19:29.161Z,32.35
2019-04-21T16:22:01.003Z,32.58
2019-04-21T16:24:30.931Z,32.79
2019-04-21T16:27:04.941Z,32.23
2019-04-21T16:29:34.158Z,32.49
2019-04-21T16:32:09.111Z,32.78
2019-04-21T16:34:48.372Z,33.21
2019-04-21T16:37:10.130Z,33.57
2019-04-21T16:39:41.283Z,33.44
2019-04-21T16:42:12.493Z,33.44
2019-04-21T16:44:45.011Z,33.58
2019-04-21T16:47:14.213Z,34.18
2019-04-21T16:49:45.518Z,34.13
2019-04-21T16:52:23.761Z,34.21
2019-04-21T16:55:00.237Z,34.35
2019-04-21T16:57:59.478Z,34.28
2019-04-21T17:00:31.700Z,34.53
2019-04-21T17:02:58.795Z,34.36
2019-04-21T17:05:28.220Z,34.57
2019-04-21T17:07:57.973Z,34.80
2019-04-21T17:10:28.781Z,34.50
2019-04-21T17:12:59.905Z,33.96
2019-04-21T17:15:48.751Z,34.12
2019-04-21T17:18:20.774Z,34.01
2019-04-21T17:20:42.937Z,33.52
2019-04-21T17:23:05.369Z,33.23
2019-04-21T17:25:35.034Z,32.39
2019-04-21T17:28:05.940Z,31.96
2019-04-21T17:30:36.464Z,31.69
2019-04-21T17:33:11.250Z,31.30
2019-04-21T17:35:40.751Z,30.52
2019-04-21T17:38:14.070Z,30.37
2019-04-21T17:40:49.565Z,30.02
2019-04-21T17:43:20.250Z,29.39
2019-04-21T17:45:53.126Z,29.15
2019-04-21T17:48:27.272Z,28.99
2019-04-21T17:51:09.537Z,28.44
2019-04-21T17:53:51.958Z,28.50
2019-04-21T17:56:55.178Z,28.32
2019-04-21T17:59:23.664Z,28.44
2019-04-21T18:01:51.658Z,28.70
2019-04-21T18:04:27.933Z,28.49
2019-04-21T18:07:27.434Z,28.35
2019-04-21T18:12:36.224Z,27.60
2019-04-21T18:15:38.328Z,27.69
2019-04-21T18:18:08.477Z,26.92
2019-04-21T18:20:44.004Z,26.37
2019-04-21T18:23:50.517Z,25.95
2019-04-21T18:26:29.707Z,25.32
2019-04-21T18:28:47.024Z,25.08
2019-04-21T18:31:19.025Z,25.05
2019-04-21T18:34:17.431Z,25.10
2019-04-21T18:36:51.605Z,24.79
2019-04-21T18:39:39.256Z,24.84
2019-04-21T18:42:21.367Z,24.59
2019-04-21T18:45:34.430Z,24.37
2019-04-21T18:47:59.502Z,24.44
2019-04-21T18:51:00.508Z,24.15
2019-04-21T18:53:58.085Z,24.06
2019-04-21T18:56:20.615Z,23.96
2019-04-21T18:58:50.909Z,23.83
2019-04-21T19:01:27.525Z,23.61
2019-04-21T19:03:55.910Z,23.48
2019-04-21T19:06:42.440Z,23.21
2019-04-21T19:09:11.558Z,23.15
2019-04-21T19:11:42.554Z,23.02
2019-04-21T19:17:13.868Z,22.90
2019-04-21T19:19:39.361Z,22.91
2019-04-21T19:22:00.662Z,22.74
2019-04-21T19:27:06.217Z,22.42
2019-04-21T19:32:01.698Z,22.20
2019-04-21T19:34:23.729Z,22.33
2019-04-21T19:36:55.046Z,22.25
2019-04-21T19:39:36.187Z,22.12
2019-04-21T19:42:07.194Z,22.12
2019-04-21T19:44:45.443Z,21.68
2019-04-21T19:47:17.222Z,21.56
2019-04-21T19:49:49.520Z,21.56
2019-04-21T19:52:06.596Z,21.40
2019-04-21T19:54:39.717Z,21.40
2019-04-21T19:57:07.109Z,21.29
2019-04-21T19:59:44.672Z,20.93
2019-04-21T20:02:09.023Z,20.75
2019-04-21T20:04:48.433Z,20.52
2019-04-21T20:07:26.319Z,20.47
2019-04-21T20:10:03.424Z,20.36
2019-04-21T20:12:36.608Z,20.10
2019-04-21T20:15:10.824Z,19.95
2019-04-21T20:17:40.800Z,19.68
2019-04-21T20:19:49.978Z,19.51
2019-04-21T20:22:23.965Z,19.53
2019-04-21T20:24:58.615Z,19.18
2019-04-21T20:27:36.226Z,19.22
2019-04-21T20:30:16.048Z,19.09
2019-04-21T20:32:52.200Z,18.96
2019-04-21T20:35:26.660Z,18.94
2019-04-21T20:37:51.131Z,18.87
2019-04-21T20:40:23.274Z,18.86
2019-04-21T20:42:52.631Z,18.77
2019-04-21T20:47:48.011Z,18.35
2019-04-21T20:50:28.648Z,18.18
2019-04-21T20:53:07.226Z,18.11
2019-04-21T20:55:26.517Z,18.04
2019-04-21T20:57:56.547Z,18.12
2019-04-21T21:00:54.477Z,18.02
2019-04-21T21:03:13.558Z,17.95
2019-04-21T21:05:39.895Z,17.93
2019-04-21T21:08:20.017Z,17.71
2019-04-21T21:10:44.261Z,17.79
2019-04-21T21:13:28.389Z,17.71
2019-04-21T21:15:52.609Z,17.62
2019-04-21T21:18:38.469Z,17.69
2019-04-21T21:20:56.032Z,17.72
2019-04-21T21:23:14.442Z,17.32
2019-04-21T21:25:58.481Z,17.52
2019-04-21T21:28:22.710Z,17.72
2019-04-21T21:30:52.751Z,17.52
2019-04-21T21:33:25.710Z,17.53
2019-04-21T21:36:06.543Z,17.56
2019-04-21T21:38:40.889Z,17.37
2019-04-21T21:41:03.248Z,17.38
2019-04-21T21:43:30.968Z,17.43
2019-04-21T21:46:06.283Z,17.35
2019-04-21T21:48:50.070Z,17.34
2019-04-21T21:51:22.885Z,17.13
2019-04-21T21:53:45.826Z,17.21
2019-04-21T21:56:16.471Z,17.31
2019-04-21T21:58:48.139Z,17.19
2019-04-21T22:01:21.674Z,17.12
2019-04-21T22:04:04.857Z,17.04
2019-04-21T22:06:40.133Z,16.78
2019-04-21T22:09:06.150Z,16.76
2019-04-21T22:11:36.134Z,16.86
2019-04-21T22:14:17.075Z,16.68
2019-04-21T22:16:59.437Z,16.81
2019-04-21T22:19:33.984Z,16.88
2019-04-21T22:22:04.165Z,16.73
2019-04-21T22:24:35.138Z,16.73
2019-04-21T22:26:52.680Z,16.49
2019-04-21T22:29:23.411Z,16.50
2019-04-21T22:32:05.534Z,16.24
2019-04-21T22:34:30.267Z,16.42
2019-04-21T22:37:07.231Z,16.37
2019-04-21T22:39:44.918Z,16.43
2019-04-21T22:42:05.839Z,16.44
2019-04-21T22:44:32.246Z,16.43
2019-04-21T22:47:11.239Z,16.33
2019-04-21T22:49:32.610Z,16.24
2019-04-21T22:52:10.373Z,16.29
2019-04-21T22:54:37.982Z,16.37
2019-04-21T22:57:12.064Z,16.43
2019-04-21T22:59:37.343Z,16.31
2019-04-21T23:02:16.307Z,16.36
2019-04-21T23:04:48.858Z,16.52
2019-04-21T23:07:17.682Z,16.33
2019-04-21T23:09:49.504Z,16.49
2019-04-21T23:12:28.249Z,16.48
2019-04-21T23:15:01.854Z,16.37
2019-04-21T23:17:45.866Z,16.45
2019-04-21T23:20:19.913Z,16.36
2019-04-21T23:23:00.729Z,16.11
2019-04-21T23:25:25.299Z,16.18
2019-04-21T23:27:56.295Z,16.18
2019-04-21T23:30:37.658Z,15.66
2019-04-21T23:32:53.624Z,15.84
2019-04-21T23:35:21.838Z,15.66
2019-04-21T23:38:00.936Z,15.63
2019-04-21T23:40:27.838Z,15.57
2019-04-21T23:43:00.112Z,15.58
2019-04-21T23:45:36.188Z,15.57
2019-04-21T23:48:19.705Z,15.71
2019-04-21T23:50:45.016Z,15.32
2019-04-21T23:53:08.894Z,15.41
2019-04-21T23:55:39.068Z,15.45
2019-04-21T23:58:16.374Z,15.29
